Strona główna
METAR-TAF:

METAR-TAF

Lotnisko :

Calais, Francja

Szerokość geograficzna: 50-57-39N, Długość geograficzna: 001-57-05E, wysokość: 4 m

Aktualna obserwacja pogody

Raport powstał 19 minut temu, godzina 05:30 UTC
Wiatr 2 kt od południe
Temperatura 6°C
Wilgotność 100%
Ciśnienie 1024 hPa
Widzialność: 2400 m
zamglenie

METAR: LFAC 090530Z AUTO 18002KT 2400 BR NSC 06/06 Q1024

czas: 07:49 (05:49 UTC)


TAF: brakujący

Obserwacja i prognoza pogody dla ponad 4000 lotnisk (raport METAR i TAF).

Dostępne stacje oznaczono żółtymi i czerwonymi punktami na mapie.

Najedź kursorem aby zobaczyć nazwę stacji.

Kliknij aby zobaczyć obserwacje i prognozy pogody.

Aby zmienić mapę: kliknij na zielony przycisk z czarnym krzyżykiem, aby powiększyć; na zielony przycisk z myślnikiem, aby pomniejszyć; na zielone strzałki, aby przejść do map sąsiednich.


METAR-TAF: